sensor_id;sensor_type;location;lat;lon;timestamp;P1;durP1;ratioP1;P2;durP2;ratioP2
17790;SDS011;9019;48.132;-1.210;2024-02-23T00:01:06;9.10;;;1.47;;
17790;SDS011;9019;48.132;-1.210;2024-02-23T00:03:33;10.27;;;1.30;;
17790;SDS011;9019;48.132;-1.210;2024-02-23T00:06:01;8.47;;;1.10;;
17790;SDS011;9019;48.132;-1.210;2024-02-23T00:08:29;8.60;;;1.50;;
17790;SDS011;9019;48.132;-1.210;2024-02-23T00:10:57;7.63;;;1.73;;
17790;SDS011;9019;48.132;-1.210;2024-02-23T00:13:24;5.00;;;1.30;;
17790;SDS011;9019;48.132;-1.210;2024-02-23T00:15:52;8.73;;;1.90;;
17790;SDS011;9019;48.132;-1.210;2024-02-23T00:18:19;7.90;;;1.50;;
17790;SDS011;9019;48.132;-1.210;2024-02-23T00:20:46;7.80;;;1.37;;
17790;SDS011;9019;48.132;-1.210;2024-02-23T00:23:13;9.50;;;1.60;;
17790;SDS011;9019;48.132;-1.210;2024-02-23T00:25:40;9.40;;;1.70;;
17790;SDS011;9019;48.132;-1.210;2024-02-23T00:28:09;7.40;;;1.37;;
17790;SDS011;9019;48.132;-1.210;2024-02-23T00:30:36;8.00;;;1.47;;
17790;SDS011;9019;48.132;-1.210;2024-02-23T00:33:04;9.57;;;1.50;;
17790;SDS011;9019;48.132;-1.210;2024-02-23T00:35:32;6.20;;;1.23;;
17790;SDS011;9019;48.132;-1.210;2024-02-23T00:37:59;7.20;;;1.43;;
17790;SDS011;9019;48.132;-1.210;2024-02-23T00:40:29;9.50;;;1.37;;
17790;SDS011;9019;48.132;-1.210;2024-02-23T00:42:56;8.63;;;1.03;;
17790;SDS011;9019;48.132;-1.210;2024-02-23T00:45:26;7.50;;;1.00;;
17790;SDS011;9019;48.132;-1.210;2024-02-23T00:47:53;11.03;;;1.60;;
17790;SDS011;9019;48.132;-1.210;2024-02-23T00:50:22;5.70;;;1.60;;
17790;SDS011;9019;48.132;-1.210;2024-02-23T00:52:51;9.70;;;1.40;;
17790;SDS011;9019;48.132;-1.210;2024-02-23T00:55:18;8.97;;;1.33;;
17790;SDS011;9019;48.132;-1.210;2024-02-23T00:57:46;9.83;;;1.60;;
17790;SDS011;9019;48.132;-1.210;2024-02-23T01:00:13;9.10;;;1.23;;
17790;SDS011;9019;48.132;-1.210;2024-02-23T01:02:42;7.93;;;1.30;;
17790;SDS011;9019;48.132;-1.210;2024-02-23T01:05:09;8.43;;;1.13;;
17790;SDS011;9019;48.132;-1.210;2024-02-23T01:07:36;5.27;;;1.10;;
17790;SDS011;9019;48.132;-1.210;2024-02-23T01:10:04;8.70;;;1.30;;
17790;SDS011;9019;48.132;-1.210;2024-02-23T01:12:31;8.60;;;1.60;;
17790;SDS011;9019;48.132;-1.210;2024-02-23T01:14:58;11.80;;;1.60;;
17790;SDS011;9019;48.132;-1.210;2024-02-23T01:17:25;10.03;;;1.40;;
17790;SDS011;9019;48.132;-1.210;2024-02-23T01:19:54;9.90;;;1.40;;
17790;SDS011;9019;48.132;-1.210;2024-02-23T01:22:21;8.47;;;1.40;;
17790;SDS011;9019;48.132;-1.210;2024-02-23T01:24:48;8.40;;;1.20;;
17790;SDS011;9019;48.132;-1.210;2024-02-23T01:27:16;7.10;;;1.43;;
17790;SDS011;9019;48.132;-1.210;2024-02-23T01:29:43;8.67;;;1.50;;
17790;SDS011;9019;48.132;-1.210;2024-02-23T01:32:10;10.53;;;1.83;;
17790;SDS011;9019;48.132;-1.210;2024-02-23T01:34:37;7.30;;;1.37;;
17790;SDS011;9019;48.132;-1.210;2024-02-23T01:37:06;8.37;;;1.30;;
17790;SDS011;9019;48.132;-1.210;2024-02-23T01:39:34;8.87;;;1.50;;
17790;SDS011;9019;48.132;-1.210;2024-02-23T01:42:01;9.93;;;1.40;;
17790;SDS011;9019;48.132;-1.210;2024-02-23T01:44:28;8.73;;;1.33;;
17790;SDS011;9019;48.132;-1.210;2024-02-23T01:46:55;12.90;;;1.90;;
17790;SDS011;9019;48.132;-1.210;2024-02-23T01:49:23;8.47;;;1.63;;
17790;SDS011;9019;48.132;-1.210;2024-02-23T01:51:56;6.03;;;1.80;;
17790;SDS011;9019;48.132;-1.210;2024-02-23T01:54:25;12.40;;;1.80;;
17790;SDS011;9019;48.132;-1.210;2024-02-23T01:56:53;10.83;;;2.07;;
17790;SDS011;9019;48.132;-1.210;2024-02-23T01:59:20;7.20;;;1.50;;
17790;SDS011;9019;48.132;-1.210;2024-02-23T02:01:48;9.67;;;1.77;;
17790;SDS011;9019;48.132;-1.210;2024-02-23T02:04:15;9.93;;;1.70;;
17790;SDS011;9019;48.132;-1.210;2024-02-23T02:06:42;10.40;;;1.53;;
17790;SDS011;9019;48.132;-1.210;2024-02-23T02:09:09;8.23;;;1.53;;
17790;SDS011;9019;48.132;-1.210;2024-02-23T02:11:45;7.03;;;1.40;;
17790;SDS011;9019;48.132;-1.210;2024-02-23T02:14:13;9.27;;;1.50;;
17790;SDS011;9019;48.132;-1.210;2024-02-23T02:16:40;11.80;;;1.17;;
17790;SDS011;9019;48.132;-1.210;2024-02-23T02:19:09;11.43;;;1.50;;
17790;SDS011;9019;48.132;-1.210;2024-02-23T02:21:36;6.13;;;1.10;;
17790;SDS011;9019;48.132;-1.210;2024-02-23T02:24:04;5.77;;;1.20;;
17790;SDS011;9019;48.132;-1.210;2024-02-23T02:26:31;11.37;;;1.43;;
17790;SDS011;9019;48.132;-1.210;2024-02-23T02:29:00;8.40;;;1.40;;
17790;SDS011;9019;48.132;-1.210;2024-02-23T02:31:27;7.70;;;1.20;;
17790;SDS011;9019;48.132;-1.210;2024-02-23T02:33:54;9.10;;;1.77;;
17790;SDS011;9019;48.132;-1.210;2024-02-23T02:36:21;13.33;;;1.40;;
17790;SDS011;9019;48.132;-1.210;2024-02-23T02:38:48;6.77;;;1.40;;
17790;SDS011;9019;48.132;-1.210;2024-02-23T02:41:16;9.20;;;1.40;;
17790;SDS011;9019;48.132;-1.210;2024-02-23T02:43:44;6.97;;;1.20;;
17790;SDS011;9019;48.132;-1.210;2024-02-23T02:46:12;7.90;;;1.20;;
17790;SDS011;9019;48.132;-1.210;2024-02-23T02:48:40;9.07;;;1.43;;
17790;SDS011;9019;48.132;-1.210;2024-02-23T02:51:07;8.23;;;1.37;;
17790;SDS011;9019;48.132;-1.210;2024-02-23T02:53:34;7.20;;;1.40;;
17790;SDS011;9019;48.132;-1.210;2024-02-23T02:56:05;7.90;;;1.30;;
17790;SDS011;9019;48.132;-1.210;2024-02-23T02:58:32;5.20;;;1.03;;
17790;SDS011;9019;48.132;-1.210;2024-02-23T03:00:59;4.33;;;1.07;;
17790;SDS011;9019;48.132;-1.210;2024-02-23T03:03:28;7.80;;;1.20;;
17790;SDS011;9019;48.132;-1.210;2024-02-23T03:05:55;10.30;;;1.27;;
17790;SDS011;9019;48.132;-1.210;2024-02-23T03:08:22;9.57;;;1.23;;
17790;SDS011;9019;48.132;-1.210;2024-02-23T03:10:50;13.33;;;1.63;;
17790;SDS011;9019;48.132;-1.210;2024-02-23T03:13:17;9.33;;;1.30;;
17790;SDS011;9019;48.132;-1.210;2024-02-23T03:15:44;6.27;;;1.23;;
17790;SDS011;9019;48.132;-1.210;2024-02-23T03:18:11;9.70;;;1.00;;
17790;SDS011;9019;48.132;-1.210;2024-02-23T03:20:41;10.27;;;1.30;;
17790;SDS011;9019;48.132;-1.210;2024-02-23T03:23:08;9.53;;;1.30;;
17790;SDS011;9019;48.132;-1.210;2024-02-23T03:25:36;5.33;;;0.80;;
17790;SDS011;9019;48.132;-1.210;2024-02-23T03:28:03;8.20;;;1.53;;
17790;SDS011;9019;48.132;-1.210;2024-02-23T03:30:30;7.73;;;1.30;;
17790;SDS011;9019;48.132;-1.210;2024-02-23T03:32:57;7.07;;;1.03;;
17790;SDS011;9019;48.132;-1.210;2024-02-23T03:35:25;4.87;;;1.10;;
17790;SDS011;9019;48.132;-1.210;2024-02-23T03:37:53;8.37;;;1.67;;
17790;SDS011;9019;48.132;-1.210;2024-02-23T03:40:21;7.10;;;1.20;;
17790;SDS011;9019;48.132;-1.210;2024-02-23T03:42:48;7.10;;;1.13;;
17790;SDS011;9019;48.132;-1.210;2024-02-23T03:45:15;10.37;;;1.17;;
17790;SDS011;9019;48.132;-1.210;2024-02-23T03:47:42;9.87;;;1.20;;
17790;SDS011;9019;48.132;-1.210;2024-02-23T03:50:10;8.87;;;1.33;;
17790;SDS011;9019;48.132;-1.210;2024-02-23T03:52:37;9.07;;;1.37;;
17790;SDS011;9019;48.132;-1.210;2024-02-23T03:55:06;8.23;;;1.40;;
17790;SDS011;9019;48.132;-1.210;2024-02-23T03:57:33;7.33;;;1.37;;
17790;SDS011;9019;48.132;-1.210;2024-02-23T04:00:01;9.47;;;1.50;;
17790;SDS011;9019;48.132;-1.210;2024-02-23T04:02:29;8.30;;;1.20;;
17790;SDS011;9019;48.132;-1.210;2024-02-23T04:04:56;9.10;;;1.47;;
17790;SDS011;9019;48.132;-1.210;2024-02-23T04:07:23;8.63;;;1.30;;
17790;SDS011;9019;48.132;-1.210;2024-02-23T04:09:50;10.33;;;1.17;;
17790;SDS011;9019;48.132;-1.210;2024-02-23T04:12:22;8.47;;;1.10;;
17790;SDS011;9019;48.132;-1.210;2024-02-23T04:14:49;8.80;;;1.33;;
17790;SDS011;9019;48.132;-1.210;2024-02-23T04:17:16;10.43;;;2.17;;
17790;SDS011;9019;48.132;-1.210;2024-02-23T04:19:44;8.30;;;1.00;;
17790;SDS011;9019;48.132;-1.210;2024-02-23T04:22:11;8.90;;;1.30;;
17790;SDS011;9019;48.132;-1.210;2024-02-23T04:24:38;10.43;;;1.40;;
17790;SDS011;9019;48.132;-1.210;2024-02-23T04:27:06;9.20;;;1.53;;
17790;SDS011;9019;48.132;-1.210;2024-02-23T04:29:35;8.43;;;1.60;;
17790;SDS011;9019;48.132;-1.210;2024-02-23T04:32:02;10.87;;;1.43;;
17790;SDS011;9019;48.132;-1.210;2024-02-23T04:34:30;7.63;;;1.63;;
17790;SDS011;9019;48.132;-1.210;2024-02-23T04:36:57;9.73;;;1.73;;
17790;SDS011;9019;48.132;-1.210;2024-02-23T04:39:24;10.13;;;2.00;;
17790;SDS011;9019;48.132;-1.210;2024-02-23T04:41:51;11.97;;;2.17;;
17790;SDS011;9019;48.132;-1.210;2024-02-23T04:44:19;9.47;;;2.40;;
17790;SDS011;9019;48.132;-1.210;2024-02-23T04:46:47;8.60;;;2.27;;
17790;SDS011;9019;48.132;-1.210;2024-02-23T04:49:14;9.07;;;2.20;;
17790;SDS011;9019;48.132;-1.210;2024-02-23T04:51:41;9.97;;;1.77;;
17790;SDS011;9019;48.132;-1.210;2024-02-23T04:54:09;11.27;;;1.90;;
17790;SDS011;9019;48.132;-1.210;2024-02-23T04:56:37;7.00;;;1.67;;
17790;SDS011;9019;48.132;-1.210;2024-02-23T04:59:05;7.60;;;1.30;;
17790;SDS011;9019;48.132;-1.210;2024-02-23T05:01:34;8.20;;;1.60;;
17790;SDS011;9019;48.132;-1.210;2024-02-23T05:04:04;4.93;;;1.83;;
17790;SDS011;9019;48.132;-1.210;2024-02-23T05:06:31;8.63;;;2.03;;
17790;SDS011;9019;48.132;-1.210;2024-02-23T05:08:58;7.50;;;1.17;;
17790;SDS011;9019;48.132;-1.210;2024-02-23T05:11:25;7.33;;;1.20;;
17790;SDS011;9019;48.132;-1.210;2024-02-23T05:13:52;5.37;;;1.10;;
17790;SDS011;9019;48.132;-1.210;2024-02-23T05:16:20;7.07;;;1.50;;
17790;SDS011;9019;48.132;-1.210;2024-02-23T05:18:47;6.80;;;1.30;;
17790;SDS011;9019;48.132;-1.210;2024-02-23T05:21:16;6.80;;;1.57;;
17790;SDS011;9019;48.132;-1.210;2024-02-23T05:23:43;5.50;;;1.00;;
17790;SDS011;9019;48.132;-1.210;2024-02-23T05:26:11;8.23;;;1.50;;
17790;SDS011;9019;48.132;-1.210;2024-02-23T05:28:38;5.97;;;1.30;;
17790;SDS011;9019;48.132;-1.210;2024-02-23T05:31:06;7.03;;;1.33;;
17790;SDS011;9019;48.132;-1.210;2024-02-23T05:33:33;4.43;;;1.07;;
17790;SDS011;9019;48.132;-1.210;2024-02-23T05:36:00;7.90;;;1.17;;
17790;SDS011;9019;48.132;-1.210;2024-02-23T05:38:29;6.47;;;1.03;;
17790;SDS011;9019;48.132;-1.210;2024-02-23T05:40:56;6.03;;;1.10;;
17790;SDS011;9019;48.132;-1.210;2024-02-23T05:43:23;5.67;;;1.60;;
17790;SDS011;9019;48.132;-1.210;2024-02-23T05:45:51;8.13;;;1.43;;
17790;SDS011;9019;48.132;-1.210;2024-02-23T05:48:19;6.60;;;1.50;;
17790;SDS011;9019;48.132;-1.210;2024-02-23T05:50:46;8.13;;;1.57;;
17790;SDS011;9019;48.132;-1.210;2024-02-23T05:53:13;6.17;;;1.50;;
17790;SDS011;9019;48.132;-1.210;2024-02-23T05:55:42;6.33;;;1.50;;
17790;SDS011;9019;48.132;-1.210;2024-02-23T05:58:09;4.33;;;1.40;;
17790;SDS011;9019;48.132;-1.210;2024-02-23T06:00:38;5.37;;;1.23;;
17790;SDS011;9019;48.132;-1.210;2024-02-23T06:03:06;8.43;;;1.50;;
17790;SDS011;9019;48.132;-1.210;2024-02-23T06:05:33;5.17;;;1.67;;
17790;SDS011;9019;48.132;-1.210;2024-02-23T06:08:00;11.17;;;1.40;;
17790;SDS011;9019;48.132;-1.210;2024-02-23T06:10:28;8.63;;;1.30;;
17790;SDS011;9019;48.132;-1.210;2024-02-23T06:12:56;7.40;;;1.23;;
17790;SDS011;9019;48.132;-1.210;2024-02-23T06:15:26;5.30;;;1.00;;
17790;SDS011;9019;48.132;-1.210;2024-02-23T06:17:53;4.10;;;1.20;;
17790;SDS011;9019;48.132;-1.210;2024-02-23T06:20:20;7.80;;;1.50;;
17790;SDS011;9019;48.132;-1.210;2024-02-23T06:22:47;6.20;;;1.30;;
17790;SDS011;9019;48.132;-1.210;2024-02-23T06:25:15;7.47;;;1.30;;
17790;SDS011;9019;48.132;-1.210;2024-02-23T06:27:42;6.27;;;1.17;;
17790;SDS011;9019;48.132;-1.210;2024-02-23T06:30:11;8.10;;;1.30;;
17790;SDS011;9019;48.132;-1.210;2024-02-23T06:32:38;5.37;;;1.20;;
17790;SDS011;9019;48.132;-1.210;2024-02-23T06:35:05;3.90;;;1.00;;
17790;SDS011;9019;48.132;-1.210;2024-02-23T06:37:33;6.17;;;1.50;;
17790;SDS011;9019;48.132;-1.210;2024-02-23T06:40:01;5.30;;;1.67;;
17790;SDS011;9019;48.132;-1.210;2024-02-23T06:42:29;4.43;;;1.23;;
17790;SDS011;9019;48.132;-1.210;2024-02-23T06:44:56;7.00;;;1.60;;
17790;SDS011;9019;48.132;-1.210;2024-02-23T06:47:25;8.17;;;1.50;;
17790;SDS011;9019;48.132;-1.210;2024-02-23T06:49:52;8.37;;;1.80;;
17790;SDS011;9019;48.132;-1.210;2024-02-23T06:52:19;6.40;;;2.07;;
17790;SDS011;9019;48.132;-1.210;2024-02-23T06:54:48;8.53;;;1.93;;
17790;SDS011;9019;48.132;-1.210;2024-02-23T06:57:15;10.00;;;2.43;;
17790;SDS011;9019;48.132;-1.210;2024-02-23T06:59:42;11.33;;;4.03;;
17790;SDS011;9019;48.132;-1.210;2024-02-23T07:02:10;13.90;;;3.37;;
17790;SDS011;9019;48.132;-1.210;2024-02-23T07:04:38;10.97;;;2.50;;
17790;SDS011;9019;48.132;-1.210;2024-02-23T07:07:05;7.93;;;2.37;;
17790;SDS011;9019;48.132;-1.210;2024-02-23T07:09:33;5.07;;;1.67;;
17790;SDS011;9019;48.132;-1.210;2024-02-23T07:12:00;4.77;;;1.50;;
17790;SDS011;9019;48.132;-1.210;2024-02-23T07:14:27;5.93;;;1.27;;
17790;SDS011;9019;48.132;-1.210;2024-02-23T07:16:55;6.77;;;1.47;;
17790;SDS011;9019;48.132;-1.210;2024-02-23T07:19:22;4.30;;;1.47;;
17790;SDS011;9019;48.132;-1.210;2024-02-23T07:21:50;7.27;;;1.40;;
17790;SDS011;9019;48.132;-1.210;2024-02-23T07:24:17;6.83;;;1.67;;
17790;SDS011;9019;48.132;-1.210;2024-02-23T07:26:45;5.83;;;1.53;;
17790;SDS011;9019;48.132;-1.210;2024-02-23T07:29:12;4.17;;;1.27;;
17790;SDS011;9019;48.132;-1.210;2024-02-23T07:31:39;5.37;;;1.50;;
17790;SDS011;9019;48.132;-1.210;2024-02-23T07:34:06;4.07;;;1.40;;
17790;SDS011;9019;48.132;-1.210;2024-02-23T07:36:33;6.60;;;0.97;;
17790;SDS011;9019;48.132;-1.210;2024-02-23T07:39:02;10.07;;;2.23;;
17790;SDS011;9019;48.132;-1.210;2024-02-23T07:41:29;3.63;;;1.40;;
17790;SDS011;9019;48.132;-1.210;2024-02-23T07:43:57;5.00;;;1.80;;
17790;SDS011;9019;48.132;-1.210;2024-02-23T07:46:24;7.17;;;1.43;;
17790;SDS011;9019;48.132;-1.210;2024-02-23T07:48:51;7.07;;;1.40;;
17790;SDS011;9019;48.132;-1.210;2024-02-23T07:51:19;5.63;;;1.00;;
17790;SDS011;9019;48.132;-1.210;2024-02-23T07:53:46;7.00;;;2.20;;
17790;SDS011;9019;48.132;-1.210;2024-02-23T07:56:15;4.17;;;1.60;;
17790;SDS011;9019;48.132;-1.210;2024-02-23T07:58:42;5.90;;;1.37;;
17790;SDS011;9019;48.132;-1.210;2024-02-23T08:01:09;5.50;;;1.73;;
17790;SDS011;9019;48.132;-1.210;2024-02-23T08:03:37;5.20;;;1.27;;
17790;SDS011;9019;48.132;-1.210;2024-02-23T08:06:04;3.37;;;1.43;;
17790;SDS011;9019;48.132;-1.210;2024-02-23T08:08:31;3.03;;;1.23;;
17790;SDS011;9019;48.132;-1.210;2024-02-23T08:11:00;3.53;;;1.30;;
17790;SDS011;9019;48.132;-1.210;2024-02-23T08:13:29;3.47;;;1.07;;
17790;SDS011;9019;48.132;-1.210;2024-02-23T08:15:56;2.63;;;1.37;;
17790;SDS011;9019;48.132;-1.210;2024-02-23T08:18:23;3.73;;;1.00;;
17790;SDS011;9019;48.132;-1.210;2024-02-23T08:20:51;3.77;;;1.60;;
17790;SDS011;9019;48.132;-1.210;2024-02-23T08:23:19;3.47;;;1.23;;
17790;SDS011;9019;48.132;-1.210;2024-02-23T08:25:47;3.97;;;1.47;;
17790;SDS011;9019;48.132;-1.210;2024-02-23T08:28:15;2.87;;;0.80;;
17790;SDS011;9019;48.132;-1.210;2024-02-23T08:30:44;4.87;;;1.10;;
17790;SDS011;9019;48.132;-1.210;2024-02-23T08:33:11;4.03;;;1.17;;
17790;SDS011;9019;48.132;-1.210;2024-02-23T08:35:38;2.83;;;1.10;;
17790;SDS011;9019;48.132;-1.210;2024-02-23T08:38:06;3.70;;;1.30;;
17790;SDS011;9019;48.132;-1.210;2024-02-23T08:40:34;4.20;;;0.87;;
17790;SDS011;9019;48.132;-1.210;2024-02-23T08:43:01;1.90;;;0.90;;
17790;SDS011;9019;48.132;-1.210;2024-02-23T08:45:29;3.17;;;1.47;;
17790;SDS011;9019;48.132;-1.210;2024-02-23T08:47:57;4.57;;;0.80;;
17790;SDS011;9019;48.132;-1.210;2024-02-23T08:50:24;2.37;;;0.97;;
17790;SDS011;9019;48.132;-1.210;2024-02-23T08:52:52;3.10;;;0.90;;
17790;SDS011;9019;48.132;-1.210;2024-02-23T08:55:19;3.33;;;0.90;;
17790;SDS011;9019;48.132;-1.210;2024-02-23T08:57:46;4.33;;;1.20;;
17790;SDS011;9019;48.132;-1.210;2024-02-23T09:00:14;2.87;;;0.67;;
17790;SDS011;9019;48.132;-1.210;2024-02-23T09:02:41;4.53;;;0.90;;
17790;SDS011;9019;48.132;-1.210;2024-02-23T09:05:10;4.27;;;0.90;;
17790;SDS011;9019;48.132;-1.210;2024-02-23T09:07:37;3.93;;;1.27;;
17790;SDS011;9019;48.132;-1.210;2024-02-23T09:10:04;3.50;;;1.10;;
17790;SDS011;9019;48.132;-1.210;2024-02-23T09:12:31;5.03;;;1.10;;
17790;SDS011;9019;48.132;-1.210;2024-02-23T09:14:59;3.73;;;0.73;;
17790;SDS011;9019;48.132;-1.210;2024-02-23T09:17:26;3.27;;;1.00;;
17790;SDS011;9019;48.132;-1.210;2024-02-23T09:19:53;7.13;;;1.20;;
17790;SDS011;9019;48.132;-1.210;2024-02-23T09:22:21;5.40;;;0.90;;
17790;SDS011;9019;48.132;-1.210;2024-02-23T09:24:50;2.97;;;0.90;;
17790;SDS011;9019;48.132;-1.210;2024-02-23T09:27:20;3.00;;;0.50;;
17790;SDS011;9019;48.132;-1.210;2024-02-23T09:29:47;2.67;;;0.73;;
17790;SDS011;9019;48.132;-1.210;2024-02-23T09:32:14;3.80;;;1.00;;
17790;SDS011;9019;48.132;-1.210;2024-02-23T09:34:41;4.50;;;1.00;;
17790;SDS011;9019;48.132;-1.210;2024-02-23T09:37:08;3.87;;;0.90;;
17790;SDS011;9019;48.132;-1.210;2024-02-23T09:39:37;2.87;;;0.70;;
17790;SDS011;9019;48.132;-1.210;2024-02-23T09:42:05;4.17;;;1.10;;
17790;SDS011;9019;48.132;-1.210;2024-02-23T09:44:34;3.67;;;1.10;;
17790;SDS011;9019;48.132;-1.210;2024-02-23T09:47:02;3.53;;;0.70;;
17790;SDS011;9019;48.132;-1.210;2024-02-23T09:49:33;4.77;;;1.10;;
17790;SDS011;9019;48.132;-1.210;2024-02-23T09:52:01;6.03;;;2.00;;
17790;SDS011;9019;48.132;-1.210;2024-02-23T09:54:29;4.27;;;1.10;;
17790;SDS011;9019;48.132;-1.210;2024-02-23T09:56:57;4.60;;;1.10;;
17790;SDS011;9019;48.132;-1.210;2024-02-23T09:59:24;4.57;;;0.90;;
17790;SDS011;9019;48.132;-1.210;2024-02-23T10:01:53;2.60;;;0.83;;
17790;SDS011;9019;48.132;-1.210;2024-02-23T10:04:20;4.70;;;1.10;;
17790;SDS011;9019;48.132;-1.210;2024-02-23T10:06:47;3.93;;;1.30;;
17790;SDS011;9019;48.132;-1.210;2024-02-23T10:09:15;4.23;;;0.93;;
17790;SDS011;9019;48.132;-1.210;2024-02-23T10:11:42;4.30;;;1.30;;
17790;SDS011;9019;48.132;-1.210;2024-02-23T10:14:12;4.57;;;1.13;;
17790;SDS011;9019;48.132;-1.210;2024-02-23T10:16:39;5.07;;;1.50;;
17790;SDS011;9019;48.132;-1.210;2024-02-23T10:19:06;4.00;;;1.50;;
17790;SDS011;9019;48.132;-1.210;2024-02-23T10:21:33;4.43;;;1.20;;
17790;SDS011;9019;48.132;-1.210;2024-02-23T10:24:01;5.27;;;1.00;;
17790;SDS011;9019;48.132;-1.210;2024-02-23T10:26:28;4.13;;;1.10;;
17790;SDS011;9019;48.132;-1.210;2024-02-23T10:28:55;3.53;;;0.90;;
17790;SDS011;9019;48.132;-1.210;2024-02-23T10:31:25;2.90;;;0.97;;
17790;SDS011;9019;48.132;-1.210;2024-02-23T10:33:52;4.00;;;1.10;;
17790;SDS011;9019;48.132;-1.210;2024-02-23T10:36:21;4.50;;;1.20;;
17790;SDS011;9019;48.132;-1.210;2024-02-23T10:38:50;5.03;;;1.00;;
17790;SDS011;9019;48.132;-1.210;2024-02-23T10:41:19;3.83;;;1.10;;
17790;SDS011;9019;48.132;-1.210;2024-02-23T10:43:47;3.47;;;0.90;;
17790;SDS011;9019;48.132;-1.210;2024-02-23T10:46:16;4.70;;;1.20;;
17790;SDS011;9019;48.132;-1.210;2024-02-23T10:48:46;2.63;;;1.00;;
17790;SDS011;9019;48.132;-1.210;2024-02-23T10:51:15;4.97;;;0.80;;
17790;SDS011;9019;48.132;-1.210;2024-02-23T10:53:42;4.90;;;1.57;;
17790;SDS011;9019;48.132;-1.210;2024-02-23T10:56:11;3.70;;;1.20;;
17790;SDS011;9019;48.132;-1.210;2024-02-23T10:58:38;3.23;;;0.90;;
17790;SDS011;9019;48.132;-1.210;2024-02-23T11:01:06;2.30;;;1.00;;
17790;SDS011;9019;48.132;-1.210;2024-02-23T11:03:34;6.90;;;1.63;;
17790;SDS011;9019;48.132;-1.210;2024-02-23T11:06:05;3.07;;;1.00;;
17790;SDS011;9019;48.132;-1.210;2024-02-23T11:08:32;3.10;;;1.23;;
17790;SDS011;9019;48.132;-1.210;2024-02-23T11:11:06;2.07;;;0.90;;
17790;SDS011;9019;48.132;-1.210;2024-02-23T11:13:34;2.17;;;0.87;;
17790;SDS011;9019;48.132;-1.210;2024-02-23T11:16:01;4.80;;;1.37;;
17790;SDS011;9019;48.132;-1.210;2024-02-23T11:18:29;3.27;;;0.83;;
17790;SDS011;9019;48.132;-1.210;2024-02-23T11:20:58;3.50;;;1.30;;
17790;SDS011;9019;48.132;-1.210;2024-02-23T11:23:28;2.30;;;0.90;;
17790;SDS011;9019;48.132;-1.210;2024-02-23T11:26:05;3.90;;;0.70;;
17790;SDS011;9019;48.132;-1.210;2024-02-23T11:28:33;4.73;;;1.07;;
17790;SDS011;9019;48.132;-1.210;2024-02-23T11:31:11;1.70;;;0.80;;
17790;SDS011;9019;48.132;-1.210;2024-02-23T11:33:38;2.97;;;0.80;;
17790;SDS011;9019;48.132;-1.210;2024-02-23T11:36:06;2.93;;;0.90;;
17790;SDS011;9019;48.132;-1.210;2024-02-23T11:38:34;2.73;;;1.20;;
17790;SDS011;9019;48.132;-1.210;2024-02-23T11:41:02;4.37;;;1.10;;
17790;SDS011;9019;48.132;-1.210;2024-02-23T11:43:29;4.20;;;0.90;;
17790;SDS011;9019;48.132;-1.210;2024-02-23T11:45:56;2.83;;;0.80;;
17790;SDS011;9019;48.132;-1.210;2024-02-23T11:48:24;2.90;;;0.90;;
17790;SDS011;9019;48.132;-1.210;2024-02-23T11:50:51;2.73;;;0.97;;
17790;SDS011;9019;48.132;-1.210;2024-02-23T11:53:18;2.67;;;0.90;;
17790;SDS011;9019;48.132;-1.210;2024-02-23T11:55:48;2.93;;;0.80;;
17790;SDS011;9019;48.132;-1.210;2024-02-23T11:58:15;3.63;;;1.00;;
17790;SDS011;9019;48.132;-1.210;2024-02-23T12:00:43;2.50;;;1.10;;
17790;SDS011;9019;48.132;-1.210;2024-02-23T12:03:11;3.53;;;0.90;;
17790;SDS011;9019;48.132;-1.210;2024-02-23T12:05:38;4.97;;;0.97;;
17790;SDS011;9019;48.132;-1.210;2024-02-23T12:08:05;2.97;;;1.10;;
17790;SDS011;9019;48.132;-1.210;2024-02-23T12:10:32;4.10;;;0.87;;
17790;SDS011;9019;48.132;-1.210;2024-02-23T12:13:01;2.43;;;0.63;;
17790;SDS011;9019;48.132;-1.210;2024-02-23T12:15:28;5.13;;;0.73;;
17790;SDS011;9019;48.132;-1.210;2024-02-23T12:17:57;3.17;;;0.87;;
17790;SDS011;9019;48.132;-1.210;2024-02-23T12:20:25;3.40;;;1.80;;
17790;SDS011;9019;48.132;-1.210;2024-02-23T12:22:54;6.57;;;2.60;;
17790;SDS011;9019;48.132;-1.210;2024-02-23T12:25:22;7.23;;;2.97;;
17790;SDS011;9019;48.132;-1.210;2024-02-23T12:27:53;3.30;;;1.70;;
17790;SDS011;9019;48.132;-1.210;2024-02-23T12:30:23;3.93;;;1.40;;
17790;SDS011;9019;48.132;-1.210;2024-02-23T12:32:51;2.83;;;0.90;;
17790;SDS011;9019;48.132;-1.210;2024-02-23T12:35:19;4.97;;;2.17;;
17790;SDS011;9019;48.132;-1.210;2024-02-23T12:37:46;3.97;;;1.80;;
17790;SDS011;9019;48.132;-1.210;2024-02-23T12:40:14;9.43;;;3.20;;
17790;SDS011;9019;48.132;-1.210;2024-02-23T12:42:41;8.23;;;3.73;;
17790;SDS011;9019;48.132;-1.210;2024-02-23T12:45:09;4.03;;;1.60;;
17790;SDS011;9019;48.132;-1.210;2024-02-23T12:47:38;4.57;;;1.43;;
17790;SDS011;9019;48.132;-1.210;2024-02-23T12:50:05;3.83;;;1.70;;
17790;SDS011;9019;48.132;-1.210;2024-02-23T12:52:33;5.37;;;1.00;;
17790;SDS011;9019;48.132;-1.210;2024-02-23T12:55:00;3.67;;;0.90;;
17790;SDS011;9019;48.132;-1.210;2024-02-23T12:57:27;1.63;;;0.80;;
17790;SDS011;9019;48.132;-1.210;2024-02-23T12:59:55;4.53;;;0.90;;
17790;SDS011;9019;48.132;-1.210;2024-02-23T13:02:22;3.17;;;1.07;;
17790;SDS011;9019;48.132;-1.210;2024-02-23T13:04:51;4.30;;;1.10;;
17790;SDS011;9019;48.132;-1.210;2024-02-23T13:07:18;3.87;;;1.20;;
17790;SDS011;9019;48.132;-1.210;2024-02-23T13:09:45;3.57;;;1.10;;
17790;SDS011;9019;48.132;-1.210;2024-02-23T13:12:12;3.30;;;0.90;;
17790;SDS011;9019;48.132;-1.210;2024-02-23T13:14:39;3.27;;;1.30;;
17790;SDS011;9019;48.132;-1.210;2024-02-23T13:17:07;4.30;;;1.70;;
17790;SDS011;9019;48.132;-1.210;2024-02-23T13:19:34;5.87;;;1.27;;
17790;SDS011;9019;48.132;-1.210;2024-02-23T13:22:02;4.30;;;1.00;;
17790;SDS011;9019;48.132;-1.210;2024-02-23T13:24:29;6.00;;;1.03;;
17790;SDS011;9019;48.132;-1.210;2024-02-23T13:26:57;7.10;;;1.00;;
17790;SDS011;9019;48.132;-1.210;2024-02-23T13:29:23;3.27;;;1.47;;
17790;SDS011;9019;48.132;-1.210;2024-02-23T13:31:50;5.20;;;1.57;;
17790;SDS011;9019;48.132;-1.210;2024-02-23T13:34:17;5.20;;;1.80;;
17790;SDS011;9019;48.132;-1.210;2024-02-23T13:36:44;5.37;;;1.50;;
17790;SDS011;9019;48.132;-1.210;2024-02-23T13:39:14;4.57;;;2.60;;
17790;SDS011;9019;48.132;-1.210;2024-02-23T13:41:41;4.97;;;1.30;;
17790;SDS011;9019;48.132;-1.210;2024-02-23T13:44:08;4.67;;;1.33;;
17790;SDS011;9019;48.132;-1.210;2024-02-23T13:46:35;2.27;;;0.90;;
17790;SDS011;9019;48.132;-1.210;2024-02-23T13:49:05;4.00;;;0.97;;
17790;SDS011;9019;48.132;-1.210;2024-02-23T13:51:33;4.73;;;1.00;;
17790;SDS011;9019;48.132;-1.210;2024-02-23T13:54:01;2.57;;;1.07;;
17790;SDS011;9019;48.132;-1.210;2024-02-23T13:56:30;5.23;;;0.90;;
17790;SDS011;9019;48.132;-1.210;2024-02-23T13:58:57;3.27;;;0.80;;
17790;SDS011;9019;48.132;-1.210;2024-02-23T14:01:24;3.63;;;0.80;;
17790;SDS011;9019;48.132;-1.210;2024-02-23T14:03:51;2.13;;;0.73;;
17790;SDS011;9019;48.132;-1.210;2024-02-23T14:06:18;3.17;;;0.77;;
17790;SDS011;9019;48.132;-1.210;2024-02-23T14:08:46;2.17;;;0.70;;
17790;SDS011;9019;48.132;-1.210;2024-02-23T14:11:13;2.03;;;0.63;;
17790;SDS011;9019;48.132;-1.210;2024-02-23T14:13:42;3.90;;;0.80;;
17790;SDS011;9019;48.132;-1.210;2024-02-23T14:16:09;2.70;;;0.90;;
17790;SDS011;9019;48.132;-1.210;2024-02-23T14:18:36;3.40;;;0.90;;
17790;SDS011;9019;48.132;-1.210;2024-02-23T14:21:07;2.73;;;0.93;;
17790;SDS011;9019;48.132;-1.210;2024-02-23T14:23:35;2.73;;;0.90;;
17790;SDS011;9019;48.132;-1.210;2024-02-23T14:26:02;5.10;;;1.17;;
17790;SDS011;9019;48.132;-1.210;2024-02-23T14:28:30;3.90;;;1.47;;
17790;SDS011;9019;48.132;-1.210;2024-02-23T14:30:59;7.33;;;1.30;;
17790;SDS011;9019;48.132;-1.210;2024-02-23T14:33:26;3.87;;;1.00;;
17790;SDS011;9019;48.132;-1.210;2024-02-23T14:35:53;5.40;;;1.23;;
17790;SDS011;9019;48.132;-1.210;2024-02-23T14:38:20;4.63;;;1.17;;
17790;SDS011;9019;48.132;-1.210;2024-02-23T14:40:48;5.67;;;1.47;;
17790;SDS011;9019;48.132;-1.210;2024-02-23T14:43:15;3.87;;;1.37;;
17790;SDS011;9019;48.132;-1.210;2024-02-23T14:45:42;6.70;;;1.63;;
17790;SDS011;9019;48.132;-1.210;2024-02-23T14:48:11;3.37;;;1.03;;